createdAt,value
2023-02-17T00:01:34.637Z,79.16
2023-02-17T00:04:03.126Z,79.77
2023-02-17T00:06:32.641Z,80.01
2023-02-17T00:09:02.121Z,79.60
2023-02-17T00:11:30.691Z,78.62
2023-02-17T00:14:00.823Z,78.46
2023-02-17T00:16:29.544Z,81.09
2023-02-17T00:19:01.960Z,81.08
2023-02-17T00:21:32.006Z,81.54
2023-02-17T00:24:00.582Z,80.93
2023-02-17T00:26:28.643Z,77.41
2023-02-17T00:28:58.599Z,78.56
2023-02-17T00:31:27.181Z,81.36
2023-02-17T00:33:56.221Z,79.49
2023-02-17T00:36:25.257Z,80.08
2023-02-17T00:38:55.754Z,80.57
2023-02-17T00:41:25.028Z,76.28
2023-02-17T00:43:53.481Z,75.46
2023-02-17T00:46:22.994Z,81.29
2023-02-17T00:48:53.449Z,80.70
2023-02-17T00:51:21.989Z,80.76
2023-02-17T00:53:50.497Z,80.78
2023-02-17T00:56:18.677Z,80.65
2023-02-17T00:58:47.186Z,79.58
2023-02-17T01:01:16.046Z,76.69
2023-02-17T01:03:44.229Z,79.32
2023-02-17T01:06:22.273Z,79.13
2023-02-17T01:08:50.665Z,82.19
2023-02-17T01:11:26.380Z,81.42
2023-02-17T01:13:54.920Z,83.54
2023-02-17T01:16:26.212Z,82.07
2023-02-17T01:18:54.546Z,82.64
2023-02-17T01:21:25.100Z,83.02
2023-02-17T01:23:55.819Z,82.57
2023-02-17T01:26:25.599Z,82.69
2023-02-17T01:28:55.110Z,82.00
2023-02-17T01:31:24.201Z,83.13
2023-02-17T01:33:52.379Z,81.97
2023-02-17T01:36:21.400Z,79.13
2023-02-17T01:38:49.518Z,82.52
2023-02-17T01:41:20.945Z,81.19
2023-02-17T01:44:14.314Z,81.69
2023-02-17T01:46:45.120Z,82.02
2023-02-17T01:49:20.695Z,80.90
2023-02-17T01:51:53.434Z,81.80
2023-02-17T01:54:27.581Z,82.41
2023-02-17T01:56:56.592Z,80.23
2023-02-17T01:59:25.037Z,79.26
2023-02-17T02:01:55.968Z,78.38
2023-02-17T02:04:26.810Z,77.08
2023-02-17T02:06:54.954Z,75.68
2023-02-17T02:09:28.470Z,75.11
2023-02-17T02:12:00.353Z,73.97
2023-02-17T02:14:32.465Z,74.01
2023-02-17T02:17:26.866Z,74.68
2023-02-17T02:20:26.535Z,72.86
2023-02-17T02:23:33.327Z,73.12
2023-02-17T02:26:16.554Z,72.64
2023-02-17T02:29:12.665Z,72.64
2023-02-17T02:32:17.855Z,72.73
2023-02-17T02:34:48.831Z,75.40
2023-02-17T02:37:54.258Z,73.15
2023-02-17T02:40:24.989Z,71.91
2023-02-17T02:42:54.913Z,70.78
2023-02-17T02:45:23.492Z,69.90
2023-02-17T02:47:54.170Z,70.54
2023-02-17T02:50:37.825Z,68.77
2023-02-17T02:53:13.136Z,73.75
2023-02-17T02:55:53.807Z,74.88
2023-02-17T02:58:45.839Z,74.16
2023-02-17T03:01:28.804Z,75.69
2023-02-17T03:04:11.171Z,75.37
2023-02-17T03:06:57.133Z,75.20
2023-02-17T03:09:27.017Z,75.26
2023-02-17T03:11:57.192Z,74.61
2023-02-17T03:14:27.095Z,75.38
2023-02-17T03:16:55.701Z,74.56
2023-02-17T03:19:25.828Z,73.00
2023-02-17T03:22:05.783Z,75.06
2023-02-17T03:24:34.702Z,75.95
2023-02-17T03:27:03.128Z,75.17
2023-02-17T03:29:31.253Z,75.53
2023-02-17T03:31:59.886Z,76.67
2023-02-17T03:34:28.160Z,76.46
2023-02-17T03:36:56.248Z,76.88
2023-02-17T03:39:24.625Z,76.68
2023-02-17T03:41:52.745Z,77.52
2023-02-17T03:44:21.068Z,76.01
2023-02-17T03:46:50.125Z,75.85
2023-02-17T03:49:18.249Z,76.49
2023-02-17T03:51:46.295Z,76.55
2023-02-17T03:54:14.786Z,77.02
2023-02-17T03:56:42.886Z,78.39
2023-02-17T03:59:10.997Z,79.08
2023-02-17T04:01:39.498Z,80.09
2023-02-17T04:04:07.945Z,80.72
2023-02-17T04:06:36.082Z,80.14
2023-02-17T04:09:04.372Z,80.10
2023-02-17T04:11:32.890Z,79.42
2023-02-17T04:14:00.970Z,78.95
2023-02-17T04:16:29.018Z,78.93
2023-02-17T04:18:57.572Z,77.37
2023-02-17T04:21:26.155Z,75.49
2023-02-17T04:23:55.460Z,74.11
2023-02-17T04:26:23.943Z,73.97
2023-02-17T04:28:52.044Z,75.81
2023-02-17T04:31:20.216Z,76.14
2023-02-17T04:33:48.932Z,75.67
2023-02-17T04:36:16.946Z,78.13
2023-02-17T04:38:45.070Z,75.80
2023-02-17T04:41:13.561Z,76.22
2023-02-17T04:43:41.689Z,78.75
2023-02-17T04:46:12.133Z,77.75
2023-02-17T04:48:40.558Z,77.11
2023-02-17T04:51:08.824Z,77.81
2023-02-17T04:53:37.129Z,75.93
2023-02-17T04:56:06.464Z,76.75
2023-02-17T04:58:34.752Z,77.72
2023-02-17T05:01:02.799Z,80.13
2023-02-17T05:03:31.358Z,80.45
2023-02-17T05:05:59.549Z,78.03
2023-02-17T05:08:27.740Z,74.39
2023-02-17T05:10:56.253Z,75.35
2023-02-17T05:13:24.486Z,73.96
2023-02-17T05:15:52.658Z,74.92
2023-02-17T05:18:21.133Z,75.69
2023-02-17T05:20:49.173Z,75.82
2023-02-17T05:23:17.468Z,81.17
2023-02-17T05:25:46.211Z,80.10
2023-02-17T05:28:14.308Z,79.43
2023-02-17T05:30:42.412Z,79.01
2023-02-17T05:33:11.976Z,80.71
2023-02-17T05:35:40.570Z,81.49
2023-02-17T05:38:08.630Z,81.14
2023-02-17T05:40:37.031Z,79.68
2023-02-17T05:43:05.023Z,81.49
2023-02-17T05:45:33.183Z,83.15
2023-02-17T05:48:01.679Z,82.17
2023-02-17T05:50:29.794Z,80.85
2023-02-17T05:53:03.777Z,79.96
2023-02-17T05:55:32.510Z,81.73
2023-02-17T05:58:00.800Z,79.39
2023-02-17T06:00:30.418Z,81.55
2023-02-17T06:02:59.006Z,80.47
2023-02-17T06:05:27.127Z,79.36
2023-02-17T06:07:55.393Z,80.00
2023-02-17T06:10:24.019Z,77.50
2023-02-17T06:12:52.188Z,79.45
2023-02-17T06:15:20.247Z,80.83
2023-02-17T06:17:48.946Z,78.25
2023-02-17T06:20:17.318Z,79.16
2023-02-17T06:22:45.546Z,77.52
2023-02-17T06:25:14.059Z,77.79
2023-02-17T06:27:44.447Z,78.83
2023-02-17T06:30:13.235Z,75.80
2023-02-17T06:32:41.768Z,77.35
2023-02-17T06:35:09.886Z,78.27
2023-02-17T06:37:37.945Z,78.55
2023-02-17T06:40:07.135Z,78.87
2023-02-17T06:42:35.263Z,78.93
2023-02-17T06:45:06.277Z,79.14
2023-02-17T06:47:35.164Z,79.71
2023-02-17T06:50:03.359Z,81.05
2023-02-17T06:52:31.959Z,80.73
2023-02-17T06:55:00.446Z,79.23
2023-02-17T06:57:28.759Z,78.05
2023-02-17T06:59:56.858Z,73.11
2023-02-17T07:02:25.496Z,73.02
2023-02-17T07:04:54.471Z,74.33
2023-02-17T07:07:22.611Z,74.47
2023-02-17T07:09:50.996Z,75.51
2023-02-17T07:12:20.831Z,76.22
2023-02-17T07:14:48.977Z,72.96
2023-02-17T07:17:17.470Z,75.45
2023-02-17T07:19:45.555Z,76.71
2023-02-17T07:22:13.655Z,77.95
2023-02-17T07:24:42.169Z,76.31
2023-02-17T07:27:10.928Z,77.89
2023-02-17T07:29:39.401Z,75.53
2023-02-17T07:32:07.864Z,76.66
2023-02-17T07:34:36.231Z,75.71
2023-02-17T07:37:04.297Z,75.08
2023-02-17T07:39:32.936Z,73.78
2023-02-17T07:42:01.363Z,71.97
2023-02-17T07:44:29.451Z,70.66
2023-02-17T07:46:59.863Z,69.11
2023-02-17T07:49:28.012Z,65.40
2023-02-17T07:51:56.171Z,66.59
2023-02-17T07:54:24.745Z,66.25
2023-02-17T07:56:52.940Z,65.44
2023-02-17T07:59:22.342Z,64.03
2023-02-17T08:01:50.987Z,62.37
2023-02-17T08:04:19.604Z,65.60
2023-02-17T08:06:49.572Z,65.06
2023-02-17T08:09:36.270Z,65.71
2023-02-17T08:12:22.982Z,62.63
2023-02-17T08:14:51.074Z,62.42
2023-02-17T08:17:19.586Z,59.46
2023-02-17T08:19:49.246Z,60.35
2023-02-17T08:22:18.511Z,58.10
2023-02-17T08:24:47.206Z,56.10
2023-02-17T08:27:15.743Z,54.94
2023-02-17T08:29:44.359Z,50.81
2023-02-17T08:32:13.940Z,53.90
2023-02-17T08:34:42.308Z,54.07
2023-02-17T08:37:12.053Z,52.26
2023-02-17T08:39:40.612Z,53.08
2023-02-17T08:42:08.749Z,51.32
2023-02-17T08:44:37.521Z,50.69
2023-02-17T08:47:07.904Z,50.82
2023-02-17T08:49:37.139Z,51.59
2023-02-17T08:52:05.882Z,50.87
2023-02-17T08:54:34.632Z,52.46
2023-02-17T08:57:04.905Z,50.33
2023-02-17T08:59:33.387Z,50.76
2023-02-17T09:02:01.683Z,54.81
2023-02-17T09:04:29.911Z,53.59
2023-02-17T09:06:58.708Z,54.85
2023-02-17T09:09:27.474Z,56.01
2023-02-17T09:11:57.175Z,53.77
2023-02-17T09:14:25.875Z,52.55
2023-02-17T09:16:55.175Z,54.62
2023-02-17T09:19:24.214Z,52.43
2023-02-17T09:21:53.230Z,50.52
2023-02-17T09:24:21.471Z,49.44
2023-02-17T09:26:49.736Z,49.87
2023-02-17T09:29:18.430Z,48.09
2023-02-17T09:31:46.970Z,45.96
2023-02-17T09:34:15.610Z,47.97
2023-02-17T09:36:44.427Z,46.36
2023-02-17T09:39:14.491Z,46.23
2023-02-17T09:41:52.246Z,46.70
2023-02-17T09:44:34.099Z,46.50
2023-02-17T09:47:10.476Z,49.56
2023-02-17T09:49:48.089Z,49.12
2023-02-17T09:52:36.316Z,48.78
2023-02-17T09:55:39.024Z,47.81
2023-02-17T09:58:19.094Z,51.74
2023-02-17T10:01:02.822Z,49.66
2023-02-17T10:03:46.486Z,50.44
2023-02-17T10:06:24.847Z,50.00
2023-02-17T10:09:13.031Z,50.14
2023-02-17T10:12:10.114Z,50.32
2023-02-17T10:14:42.780Z,49.98
2023-02-17T10:17:38.177Z,48.84
2023-02-17T10:20:11.610Z,48.00
2023-02-17T10:22:46.089Z,49.63
2023-02-17T10:25:21.388Z,50.13
2023-02-17T10:28:01.535Z,49.06
2023-02-17T10:31:07.100Z,49.96
2023-02-17T10:33:52.971Z,48.38
2023-02-17T10:36:59.046Z,48.77
2023-02-17T10:39:45.252Z,47.51
2023-02-17T10:42:25.997Z,46.86
2023-02-17T10:45:01.418Z,45.84
2023-02-17T10:47:30.641Z,47.23
2023-02-17T10:50:03.005Z,46.44
2023-02-17T10:52:38.571Z,44.49
2023-02-17T10:55:22.912Z,46.14
2023-02-17T10:58:03.017Z,45.45
2023-02-17T11:00:31.484Z,45.37
2023-02-17T11:03:00.360Z,45.67
2023-02-17T11:05:32.811Z,46.49
2023-02-17T11:08:05.629Z,46.58
2023-02-17T11:10:36.455Z,46.55
2023-02-17T11:13:20.190Z,47.91
2023-02-17T11:15:50.031Z,47.70
2023-02-17T11:18:22.766Z,47.63
2023-02-17T11:21:14.594Z,48.08
2023-02-17T11:23:53.046Z,49.23
2023-02-17T11:26:27.994Z,47.17
2023-02-17T11:29:09.872Z,47.64
2023-02-17T11:31:38.368Z,47.65
2023-02-17T11:34:23.818Z,47.34
2023-02-17T11:37:03.088Z,47.51
2023-02-17T11:39:31.711Z,49.05
2023-02-17T11:41:59.955Z,48.26
2023-02-17T11:44:30.151Z,48.53
2023-02-17T11:47:33.777Z,49.70
2023-02-17T11:50:40.073Z,50.10
2023-02-17T11:53:27.765Z,50.11
2023-02-17T11:56:23.139Z,49.27
2023-02-17T11:58:51.601Z,50.01
2023-02-17T12:01:41.011Z,51.27
2023-02-17T12:04:30.947Z,52.50
2023-02-17T12:07:27.114Z,52.51
2023-02-17T12:10:23.559Z,53.46
2023-02-17T12:13:22.738Z,53.25
2023-02-17T12:16:13.405Z,54.67
2023-02-17T12:19:04.104Z,55.28
2023-02-17T12:21:50.702Z,56.03
2023-02-17T12:24:42.728Z,56.43
2023-02-17T12:27:14.392Z,58.30
2023-02-17T12:30:09.390Z,57.29
2023-02-17T12:33:03.826Z,57.51
2023-02-17T12:38:22.096Z,55.97
2023-02-17T12:41:04.334Z,56.95
2023-02-17T12:43:39.087Z,56.75
2023-02-17T12:46:15.700Z,56.84
2023-02-17T12:49:11.795Z,56.04
2023-02-17T12:51:48.404Z,57.55
2023-02-17T12:54:24.174Z,55.42
2023-02-17T12:57:13.217Z,57.29
2023-02-17T12:59:46.216Z,55.92
2023-02-17T13:02:16.032Z,56.32
2023-02-17T13:04:46.129Z,56.20
2023-02-17T13:07:34.186Z,55.91
2023-02-17T13:10:04.130Z,57.20
2023-02-17T13:12:40.735Z,56.13
2023-02-17T13:15:32.214Z,55.13
2023-02-17T13:18:13.262Z,55.21
2023-02-17T13:20:52.653Z,58.13
2023-02-17T13:23:37.778Z,57.48
2023-02-17T13:26:09.184Z,59.82
2023-02-17T13:28:39.745Z,60.59
2023-02-17T13:31:23.256Z,63.51
2023-02-17T13:33:53.472Z,60.19
2023-02-17T13:36:35.230Z,62.31
2023-02-17T13:39:08.620Z,64.37
2023-02-17T13:41:50.267Z,60.57
2023-02-17T13:44:32.754Z,59.38
2023-02-17T13:47:08.195Z,59.04
2023-02-17T13:49:38.186Z,58.70
2023-02-17T13:52:16.020Z,55.17
2023-02-17T13:54:59.432Z,55.32
2023-02-17T13:57:30.406Z,54.90
2023-02-17T14:00:13.848Z,56.92
2023-02-17T14:02:54.235Z,55.92
2023-02-17T14:05:45.144Z,53.48
2023-02-17T14:08:22.658Z,53.61
2023-02-17T14:10:56.344Z,53.16
2023-02-17T14:13:25.058Z,55.52
2023-02-17T14:16:01.667Z,56.46
2023-02-17T14:18:42.358Z,56.05
2023-02-17T14:21:13.323Z,57.48
2023-02-17T14:23:50.071Z,55.27
2023-02-17T14:26:47.404Z,55.66
2023-02-17T14:29:16.350Z,56.34
2023-02-17T14:31:52.694Z,57.61
2023-02-17T14:34:20.843Z,59.02
2023-02-17T14:36:49.794Z,58.98
2023-02-17T14:39:17.992Z,58.94
2023-02-17T14:41:46.382Z,57.56
2023-02-17T14:44:14.840Z,58.21
2023-02-17T14:46:46.485Z,58.15
2023-02-17T14:49:15.114Z,60.68
2023-02-17T14:51:43.440Z,58.43
2023-02-17T14:54:15.793Z,58.46
2023-02-17T14:56:48.067Z,62.21
2023-02-17T14:59:16.197Z,60.32
2023-02-17T15:01:44.917Z,57.91
2023-02-17T15:04:16.628Z,55.47
2023-02-17T15:06:48.467Z,56.77
2023-02-17T15:09:19.141Z,56.71
2023-02-17T15:11:49.416Z,55.81
2023-02-17T15:14:20.485Z,55.30
2023-02-17T15:16:49.688Z,55.56
2023-02-17T15:19:20.850Z,59.88
2023-02-17T15:21:51.178Z,59.09
2023-02-17T15:24:30.536Z,60.38
2023-02-17T15:27:03.930Z,58.27
2023-02-17T15:29:32.367Z,57.69
2023-02-17T15:32:02.493Z,53.67
2023-02-17T15:34:33.118Z,54.60
2023-02-17T15:37:02.106Z,52.50
2023-02-17T15:39:30.285Z,53.32
2023-02-17T15:42:02.465Z,54.61
2023-02-17T15:44:39.748Z,54.92
2023-02-17T15:47:21.245Z,56.16
2023-02-17T15:49:50.038Z,58.27
2023-02-17T15:52:18.195Z,58.85
2023-02-17T15:54:50.246Z,58.62
2023-02-17T15:57:24.029Z,58.11
2023-02-17T15:59:55.403Z,57.58
2023-02-17T16:02:25.557Z,57.27
2023-02-17T16:04:54.142Z,59.21
2023-02-17T16:07:24.329Z,59.66
2023-02-17T16:09:52.626Z,56.26
2023-02-17T16:12:28.226Z,56.00
2023-02-17T16:14:57.131Z,56.67
2023-02-17T16:17:27.696Z,59.98
2023-02-17T16:19:55.917Z,58.37
2023-02-17T16:22:24.177Z,58.72
2023-02-17T16:24:52.754Z,58.87
2023-02-17T16:27:20.907Z,58.49
2023-02-17T16:29:49.146Z,58.06
2023-02-17T16:32:18.152Z,57.68
2023-02-17T16:34:47.299Z,58.02
2023-02-17T16:37:17.883Z,57.38
2023-02-17T16:39:46.773Z,56.71
2023-02-17T16:42:16.988Z,56.38
2023-02-17T16:44:45.194Z,58.42
2023-02-17T16:47:24.376Z,58.90
2023-02-17T16:49:53.036Z,58.19
2023-02-17T16:52:27.744Z,58.67
2023-02-17T16:54:56.054Z,57.74
2023-02-17T16:57:24.716Z,58.84
2023-02-17T16:59:52.970Z,57.66
2023-02-17T17:02:21.945Z,57.55
2023-02-17T17:04:50.508Z,57.54
2023-02-17T17:07:18.635Z,57.03
2023-02-17T17:10:06.989Z,57.38
2023-02-17T17:12:35.184Z,57.77
2023-02-17T17:15:03.845Z,57.02
2023-02-17T17:17:46.351Z,57.19
2023-02-17T17:20:32.202Z,57.40
2023-02-17T17:23:06.354Z,58.24
2023-02-17T17:25:39.658Z,58.05
2023-02-17T17:28:08.469Z,58.85
2023-02-17T17:30:37.502Z,59.39
2023-02-17T17:33:05.748Z,59.26
2023-02-17T17:35:33.851Z,60.14
2023-02-17T17:38:02.598Z,60.91
2023-02-17T17:40:48.792Z,60.21
2023-02-17T17:43:20.480Z,60.28
2023-02-17T17:45:50.083Z,59.80
2023-02-17T17:48:20.588Z,59.90
2023-02-17T17:50:51.356Z,60.54
2023-02-17T17:53:19.775Z,61.55
2023-02-17T17:55:48.459Z,60.93
2023-02-17T17:58:17.469Z,61.19
2023-02-17T18:00:45.861Z,61.31
2023-02-17T18:03:14.664Z,60.88
2023-02-17T18:05:42.769Z,60.10
2023-02-17T18:08:11.115Z,60.67
2023-02-17T18:10:40.610Z,60.85
2023-02-17T18:13:09.548Z,60.80
2023-02-17T18:15:37.713Z,60.95
2023-02-17T18:18:06.147Z,61.32
2023-02-17T18:20:34.116Z,61.81
2023-02-17T18:23:02.247Z,61.31
2023-02-17T18:25:31.151Z,61.05
2023-02-17T18:27:59.336Z,60.87
2023-02-17T18:30:27.939Z,60.41
2023-02-17T18:32:56.320Z,59.78
2023-02-17T18:35:24.545Z,58.83
2023-02-17T18:37:52.560Z,60.05
2023-02-17T18:40:22.175Z,60.22
2023-02-17T18:42:50.129Z,59.56
2023-02-17T18:45:18.355Z,59.11
2023-02-17T18:47:47.766Z,57.71
2023-02-17T18:50:16.472Z,58.50
2023-02-17T18:52:44.674Z,58.00
2023-02-17T18:55:13.384Z,57.25
2023-02-17T18:57:43.197Z,57.38
2023-02-17T19:00:13.451Z,56.55
2023-02-17T19:02:41.849Z,57.31
2023-02-17T19:05:11.175Z,56.55
2023-02-17T19:07:39.314Z,55.64
2023-02-17T19:10:08.383Z,54.74
2023-02-17T19:12:37.728Z,55.03
2023-02-17T19:15:06.821Z,53.97
2023-02-17T19:17:35.390Z,54.94
2023-02-17T19:20:04.072Z,54.70
2023-02-17T19:22:35.751Z,55.00
2023-02-17T19:25:04.696Z,54.58
2023-02-17T19:27:32.679Z,53.97
2023-02-17T19:30:00.841Z,54.51
2023-02-17T19:32:29.332Z,54.77
2023-02-17T19:34:57.283Z,55.29
2023-02-17T19:37:25.252Z,54.96
2023-02-17T19:39:53.772Z,55.86
2023-02-17T19:42:21.862Z,54.71
2023-02-17T19:44:49.810Z,54.45
2023-02-17T19:47:18.344Z,54.93
2023-02-17T19:49:46.266Z,54.98
2023-02-17T19:52:14.330Z,55.26
2023-02-17T19:54:42.783Z,54.61
2023-02-17T19:57:10.847Z,54.08
2023-02-17T19:59:38.876Z,54.38
2023-02-17T20:02:07.202Z,54.46
2023-02-17T20:04:35.597Z,54.15
2023-02-17T20:07:03.645Z,53.10
2023-02-17T20:09:32.367Z,54.08
2023-02-17T20:12:00.754Z,53.33
2023-02-17T20:14:28.774Z,53.97
2023-02-17T20:16:56.787Z,55.04
2023-02-17T20:19:25.244Z,54.95
2023-02-17T20:21:53.155Z,55.25
2023-02-17T20:24:21.207Z,55.30
2023-02-17T20:26:51.331Z,54.76
2023-02-17T20:29:19.693Z,54.09
2023-02-17T20:31:47.959Z,54.44
2023-02-17T20:34:39.399Z,55.12
2023-02-17T20:37:08.356Z,55.59
2023-02-17T20:39:37.008Z,55.36
2023-02-17T20:42:05.326Z,54.43
2023-02-17T20:44:33.524Z,54.93
2023-02-17T20:47:02.151Z,54.94
2023-02-17T20:49:30.229Z,55.33
2023-02-17T20:51:58.121Z,55.61
2023-02-17T20:54:27.310Z,56.04
2023-02-17T20:56:57.869Z,55.96
2023-02-17T20:59:26.440Z,56.44
2023-02-17T21:01:54.662Z,56.26
2023-02-17T21:04:23.219Z,56.31
2023-02-17T21:06:51.925Z,56.96
2023-02-17T21:09:20.044Z,56.32
2023-02-17T21:11:48.161Z,56.27
2023-02-17T21:14:16.734Z,56.05
2023-02-17T21:16:45.156Z,56.33
2023-02-17T21:19:13.226Z,57.08
2023-02-17T21:21:41.598Z,56.88
2023-02-17T21:24:09.596Z,57.47
2023-02-17T21:26:37.807Z,57.09
2023-02-17T21:29:06.386Z,56.62
2023-02-17T21:31:34.489Z,57.13
2023-02-17T21:34:10.039Z,57.65
2023-02-17T21:36:40.678Z,56.95
2023-02-17T21:39:08.670Z,57.03
2023-02-17T21:41:36.761Z,56.84
2023-02-17T21:44:28.167Z,57.24
2023-02-17T21:46:56.222Z,56.51
2023-02-17T21:49:25.053Z,56.22
2023-02-17T21:51:53.251Z,56.85
2023-02-17T21:54:21.286Z,57.31
2023-02-17T21:56:49.989Z,57.59
2023-02-17T21:59:18.036Z,57.13
2023-02-17T22:01:46.116Z,56.94
2023-02-17T22:04:14.715Z,57.01
2023-02-17T22:06:43.248Z,57.24
2023-02-17T22:09:13.673Z,58.20
2023-02-17T22:11:43.117Z,57.48
2023-02-17T22:14:16.758Z,58.51
2023-02-17T22:16:46.645Z,59.20
2023-02-17T22:19:23.445Z,57.78
2023-02-17T22:21:52.119Z,56.84
2023-02-17T22:24:27.330Z,56.13
2023-02-17T22:26:55.750Z,56.01
2023-02-17T22:29:23.631Z,55.78
2023-02-17T22:31:56.013Z,56.92
2023-02-17T22:34:26.296Z,55.43
2023-02-17T22:36:54.258Z,55.60
2023-02-17T22:39:22.187Z,54.76
2023-02-17T22:41:50.615Z,55.12
2023-02-17T22:44:18.651Z,54.78
2023-02-17T22:46:46.685Z,54.54
2023-02-17T22:49:15.034Z,54.62
2023-02-17T22:51:43.033Z,55.82
2023-02-17T22:54:11.121Z,55.06
2023-02-17T22:56:39.520Z,54.98
2023-02-17T22:59:07.652Z,55.80
2023-02-17T23:01:36.971Z,55.87
2023-02-17T23:04:05.930Z,56.45
2023-02-17T23:06:36.054Z,55.65
2023-02-17T23:09:05.918Z,55.15
2023-02-17T23:11:54.124Z,55.80
2023-02-17T23:14:29.512Z,57.82
2023-02-17T23:17:01.587Z,57.64
2023-02-17T23:19:30.429Z,57.93
2023-02-17T23:22:01.840Z,59.97
2023-02-17T23:24:29.884Z,60.86
2023-02-17T23:27:00.478Z,60.80
2023-02-17T23:29:29.598Z,60.59
2023-02-17T23:31:57.792Z,61.30
2023-02-17T23:34:26.604Z,60.93
2023-02-17T23:36:54.779Z,61.87
2023-02-17T23:39:23.122Z,63.11
2023-02-17T23:41:51.420Z,62.69
2023-02-17T23:44:19.412Z,61.57
2023-02-17T23:46:47.403Z,64.85
2023-02-17T23:49:16.811Z,63.30
2023-02-17T23:51:47.057Z,62.93
2023-02-17T23:54:15.949Z,64.12
2023-02-17T23:56:44.371Z,64.60
2023-02-17T23:59:12.444Z,64.45
